Time;durP1;ratioP1;P1;durP2;ratioP2;P2;SDS_P1;SDS_P2;PMS_P1;PMS_P2;Temp;Humidity;BMP_temperature;BMP_pressure;BME280_temperature;BME280_humidity;BME280_pressure;Samples;Min_cycle;Max_cycle;Signal;HPM_P1;HPM_P2
2023/06/11 00:00:37;;;;;;;20.08;14.43;;;;;;;;;;6280169;22;20008;-82
2023/06/11 00:03:04;;;;;;;17.55;15.13;;;;;;;;;;6284730;22;20035;-83
2023/06/11 00:05:30;;;;;;;18.70;14.80;;;;;;;;;;6254515;22;20331;-83
2023/06/11 00:08:00;;;;;;;15.90;11.60;;;;;;;;;;6254621;22;20023;-84
2023/06/11 00:10:27;;;;;;;16.50;13.88;;;;;;;;;;6253284;22;20055;-83
2023/06/11 00:12:53;;;;;;;17.45;15.68;;;;;;;;;;6253109;22;20023;-84
2023/06/11 00:15:19;;;;;;;17.35;15.65;;;;;;;;;;6251164;22;20217;-82
2023/06/11 00:17:47;;;;;;;20.90;14.10;;;;;;;;;;6278106;22;20015;-82
2023/06/11 00:20:14;;;;;;;20.60;18.42;;;;;;;;;;6276934;22;20134;-83
2023/06/11 00:22:40;;;;;;;15.73;13.85;;;;;;;;;;6277398;22;20015;-83
2023/06/11 00:25:07;;;;;;;17.75;15.90;;;;;;;;;;6276013;22;20077;-83
2023/06/11 00:27:37;;;;;;;22.15;20.00;;;;;;;;;;6249922;22;20050;-83
2023/06/11 00:30:04;;;;;;;19.10;17.20;;;;;;;;;;6276366;22;20508;-83
2023/06/11 00:32:34;;;;;;;18.83;17.25;;;;;;;;;;6250455;22;20100;-82
2023/06/11 00:35:01;;;;;;;20.05;17.98;;;;;;;;;;6249975;22;20370;-84
2023/06/11 00:37:30;;;;;;;20.60;18.90;;;;;;;;;;6277451;22;20012;-83
2023/06/11 00:39:56;;;;;;;17.25;15.43;;;;;;;;;;6277472;22;20012;-83
2023/06/11 00:42:22;;;;;;;18.48;16.67;;;;;;;;;;6276957;22;20022;-83
2023/06/11 00:44:48;;;;;;;19.90;15.48;;;;;;;;;;6251563;22;20015;-83
2023/06/11 00:47:16;;;;;;;19.38;17.42;;;;;;;;;;6251161;22;20334;-83
2023/06/11 00:49:42;;;;;;;18.27;16.52;;;;;;;;;;6276260;22;20445;-83
2023/06/11 00:52:13;;;;;;;23.02;20.88;;;;;;;;;;6251079;22;20012;-83
2023/06/11 00:54:39;;;;;;;16.98;15.13;;;;;;;;;;6276866;22;20389;-83
2023/06/11 00:57:06;;;;;;;19.15;17.35;;;;;;;;;;6250351;22;20066;-83
2023/06/11 00:59:34;;;;;;;16.50;14.73;;;;;;;;;;6275235;22;20039;-83
2023/06/11 01:02:17;;;;;;;21.40;19.52;;;;;;;;;;6250611;22;20107;-83
2023/06/11 01:04:45;;;;;;;23.73;21.73;;;;;;;;;;6250098;22;20011;-83
2023/06/11 01:07:13;;;;;;;18.20;16.05;;;;;;;;;;6278226;22;20011;-83
2023/06/11 01:09:39;;;;;;;20.13;17.90;;;;;;;;;;6251251;22;20037;-82
2023/06/11 01:12:08;;;;;;;20.83;18.73;;;;;;;;;;6251117;22;20055;-83
2023/06/11 01:14:34;;;;;;;22.45;20.38;;;;;;;;;;6250785;22;20018;-83
2023/06/11 01:17:05;;;;;;;20.88;19.13;;;;;;;;;;6249319;22;20448;-83
2023/06/11 01:19:37;;;;;;;25.08;22.95;;;;;;;;;;6275502;22;20459;-83
2023/06/11 01:22:21;;;;;;;27.00;24.63;;;;;;;;;;6275814;22;20015;-82
2023/06/11 01:25:07;;;;;;;24.92;22.75;;;;;;;;;;6276407;22;20012;-82
2023/06/11 01:27:46;;;;;;;21.25;19.63;;;;;;;;;;6276004;22;20331;-83
2023/06/11 01:30:17;;;;;;;21.95;19.83;;;;;;;;;;6251616;22;20069;-83
2023/06/11 01:32:47;;;;;;;23.83;21.85;;;;;;;;;;6276522;22;20015;-83
2023/06/11 01:35:14;;;;;;;25.33;22.95;;;;;;;;;;6251406;22;20039;-84
2023/06/11 01:37:45;;;;;;;22.13;20.15;;;;;;;;;;6276777;22;20043;-83
2023/06/11 01:40:12;;;;;;;19.63;17.70;;;;;;;;;;6249547;22;20042;-83
2023/06/11 01:42:38;;;;;;;20.92;19.23;;;;;;;;;;6277699;22;20022;-83
2023/06/11 01:45:04;;;;;;;21.92;19.42;;;;;;;;;;6275986;22;20364;-82
2023/06/11 01:47:30;;;;;;;22.35;18.83;;;;;;;;;;6277022;22;20012;-82
2023/06/11 01:49:56;;;;;;;18.55;16.88;;;;;;;;;;6276644;22;20162;-82
2023/06/11 01:52:22;;;;;;;22.30;20.48;;;;;;;;;;6274505;22;20050;-82
2023/06/11 01:54:48;;;;;;;17.65;15.82;;;;;;;;;;6288677;22;20015;-82
2023/06/11 01:57:14;;;;;;;21.50;19.70;;;;;;;;;;6255602;22;20011;-82
2023/06/11 01:59:40;;;;;;;23.50;21.38;;;;;;;;;;6280929;22;20019;-83
2023/06/11 02:02:06;;;;;;;23.20;21.00;;;;;;;;;;6254679;22;20011;-82
2023/06/11 02:04:32;;;;;;;26.38;23.60;;;;;;;;;;6279969;22;20013;-83
2023/06/11 02:06:59;;;;;;;25.60;23.50;;;;;;;;;;6279315;22;20458;-83
2023/06/11 02:09:25;;;;;;;24.38;22.10;;;;;;;;;;6254369;22;20019;-82
2023/06/11 02:11:51;;;;;;;25.83;23.50;;;;;;;;;;6307496;22;20012;-82
2023/06/11 02:14:17;;;;;;;23.77;21.50;;;;;;;;;;6307407;22;20011;-83
2023/06/11 02:16:43;;;;;;;26.80;20.52;;;;;;;;;;6254263;22;20027;-82
2023/06/11 02:19:09;;;;;;;26.27;23.83;;;;;;;;;;6281391;22;20094;-81
2023/06/11 02:21:35;;;;;;;28.98;26.55;;;;;;;;;;6255975;22;20048;-82
2023/06/11 02:24:01;;;;;;;24.20;22.02;;;;;;;;;;6280984;22;20008;-82
2023/06/11 02:26:28;;;;;;;23.95;21.85;;;;;;;;;;6255548;22;20018;-82
2023/06/11 02:28:54;;;;;;;23.48;21.60;;;;;;;;;;6254425;22;20026;-82
2023/06/11 02:31:20;;;;;;;25.10;22.98;;;;;;;;;;6308221;22;20043;-82
2023/06/11 02:33:46;;;;;;;23.42;21.05;;;;;;;;;;6254441;22;20068;-82
2023/06/11 02:36:12;;;;;;;25.40;23.35;;;;;;;;;;6280319;22;20011;-83
2023/06/11 02:38:37;;;;;;;25.63;23.23;;;;;;;;;;6280245;22;20331;-82
2023/06/11 02:41:04;;;;;;;24.20;22.15;;;;;;;;;;6280105;22;20011;-82
2023/06/11 02:43:30;;;;;;;24.58;22.42;;;;;;;;;;6280422;22;20015;-82
2023/06/11 02:45:56;;;;;;;25.02;22.98;;;;;;;;;;6253622;22;20022;-81
2023/06/11 02:48:22;;;;;;;23.38;21.27;;;;;;;;;;6306987;22;20011;-82
2023/06/11 02:50:48;;;;;;;25.00;22.88;;;;;;;;;;6254738;22;20018;-82
2023/06/11 02:53:14;;;;;;;24.77;22.85;;;;;;;;;;6280651;22;20072;-83
2023/06/11 02:55:40;;;;;;;22.02;20.02;;;;;;;;;;6254292;22;20019;-82
2023/06/11 02:58:06;;;;;;;26.13;23.92;;;;;;;;;;6280287;22;20052;-82
2023/06/11 03:00:32;;;;;;;22.80;20.88;;;;;;;;;;6254472;22;20012;-82
2023/06/11 03:02:58;;;;;;;26.05;23.75;;;;;;;;;;6308614;22;20086;-82
2023/06/11 03:05:24;;;;;;;25.88;23.48;;;;;;;;;;6255398;22;20038;-82
2023/06/11 03:07:50;;;;;;;24.75;22.65;;;;;;;;;;6254844;22;20015;-82
2023/06/11 03:10:16;;;;;;;22.63;20.25;;;;;;;;;;6255897;22;20015;-82
2023/06/11 03:12:42;;;;;;;25.10;23.05;;;;;;;;;;6256211;22;20016;-83
2023/06/11 03:15:08;;;;;;;25.88;23.67;;;;;;;;;;6255450;22;20011;-84
2023/06/11 03:17:34;;;;;;;23.77;21.63;;;;;;;;;;6309090;22;20011;-82
2023/06/11 03:20:00;;;;;;;27.52;25.27;;;;;;;;;;6255577;22;20026;-82
2023/06/11 03:22:26;;;;;;;26.75;24.48;;;;;;;;;;6281388;22;20011;-82
2023/06/11 03:24:52;;;;;;;26.08;23.77;;;;;;;;;;6280890;22;20059;-83
2023/06/11 03:27:18;;;;;;;24.25;22.23;;;;;;;;;;6280442;22;20473;-83
2023/06/11 03:29:44;;;;;;;23.13;21.10;;;;;;;;;;6278950;22;20405;-82
2023/06/11 03:32:10;;;;;;;24.65;22.52;;;;;;;;;;6253889;22;20065;-83
2023/06/11 03:34:36;;;;;;;24.77;22.52;;;;;;;;;;6280274;22;20022;-81
2023/06/11 03:37:03;;;;;;;24.65;22.55;;;;;;;;;;6253343;22;20089;-81
2023/06/11 03:39:29;;;;;;;26.40;24.27;;;;;;;;;;6279391;22;20012;-82
2023/06/11 03:41:55;;;;;;;26.88;24.63;;;;;;;;;;6254654;22;20015;-83
2023/06/11 03:44:21;;;;;;;23.70;21.70;;;;;;;;;;6255034;22;20018;-83
2023/06/11 03:46:47;;;;;;;23.10;21.00;;;;;;;;;;6308138;22;20026;-83
2023/06/11 03:49:13;;;;;;;24.50;22.17;;;;;;;;;;6280179;22;20017;-81
2023/06/11 03:51:39;;;;;;;25.42;23.35;;;;;;;;;;6309233;22;20061;-82
2023/06/11 03:54:06;;;;;;;25.45;23.05;;;;;;;;;;6279183;22;20065;-82
2023/06/11 03:56:32;;;;;;;25.05;22.67;;;;;;;;;;6279925;22;20015;-83
2023/06/11 03:58:58;;;;;;;27.08;24.65;;;;;;;;;;6253485;22;20015;-82
2023/06/11 04:01:24;;;;;;;24.02;21.90;;;;;;;;;;6255610;22;20450;-83
2023/06/11 04:03:50;;;;;;;26.02;23.75;;;;;;;;;;6280657;22;20016;-82
2023/06/11 04:06:18;;;;;;;27.95;25.77;;;;;;;;;;6282016;22;20082;-82
2023/06/11 04:08:44;;;;;;;27.85;25.60;;;;;;;;;;6281436;22;20022;-82
2023/06/11 04:11:10;;;;;;;27.13;24.77;;;;;;;;;;6280683;22;20015;-82
2023/06/11 04:13:36;;;;;;;27.35;25.13;;;;;;;;;;6280685;22;20107;-82
2023/06/11 04:16:02;;;;;;;27.73;24.83;;;;;;;;;;6254977;22;20015;-82
2023/06/11 04:18:28;;;;;;;31.02;28.63;;;;;;;;;;6255850;22;20094;-82
2023/06/11 04:20:54;;;;;;;26.23;23.75;;;;;;;;;;6281957;22;20026;-82
2023/06/11 04:23:20;;;;;;;24.85;22.73;;;;;;;;;;6255903;22;20041;-83
2023/06/11 04:25:48;;;;;;;25.23;22.92;;;;;;;;;;6283080;22;20012;-83
2023/06/11 04:28:15;;;;;;;25.38;23.35;;;;;;;;;;6256581;22;20318;-83
2023/06/11 04:30:41;;;;;;;28.33;25.48;;;;;;;;;;6256759;22;20011;-82
2023/06/11 04:33:08;;;;;;;28.38;25.83;;;;;;;;;;6282124;22;20029;-83
2023/06/11 04:35:35;;;;;;;27.35;25.25;;;;;;;;;;6255823;22;20064;-83
2023/06/11 04:38:05;;;;;;;23.08;21.02;;;;;;;;;;6257773;22;20022;-83
2023/06/11 04:40:33;;;;;;;23.90;21.52;;;;;;;;;;6256248;22;20034;-83
2023/06/11 04:43:00;;;;;;;28.55;26.17;;;;;;;;;;6257150;22;20019;-81
2023/06/11 04:45:26;;;;;;;31.50;29.00;;;;;;;;;;6312681;22;20402;-83
2023/06/11 04:47:53;;;;;;;21.77;19.02;;;;;;;;;;6284055;22;20022;-82
2023/06/11 04:50:20;;;;;;;19.13;17.45;;;;;;;;;;6311516;22;20392;-84
2023/06/11 04:52:52;;;;;;;19.98;17.67;;;;;;;;;;6283181;22;20286;-82
2023/06/11 04:55:21;;;;;;;21.80;19.88;;;;;;;;;;6259065;22;20073;-84
2023/06/11 04:57:47;;;;;;;19.38;17.48;;;;;;;;;;6258103;22;20023;-83
2023/06/11 05:00:14;;;;;;;19.77;15.82;;;;;;;;;;6258284;22;20016;-83
2023/06/11 05:02:43;;;;;;;18.77;15.60;;;;;;;;;;6284307;22;20454;-83
2023/06/11 05:05:09;;;;;;;18.25;15.10;;;;;;;;;;6284769;22;20025;-84
2023/06/11 05:07:35;;;;;;;16.92;15.05;;;;;;;;;;6283082;22;20065;-83
2023/06/11 05:10:01;;;;;;;17.05;14.73;;;;;;;;;;6311469;22;20484;-83
2023/06/11 05:12:28;;;;;;;15.40;12.77;;;;;;;;;;6284725;22;20021;-85
2023/06/11 05:14:54;;;;;;;16.13;12.57;;;;;;;;;;6260285;22;20014;-84
2023/06/11 05:17:20;;;;;;;19.38;12.98;;;;;;;;;;6258180;22;20064;-84
2023/06/11 05:19:46;;;;;;;15.30;13.38;;;;;;;;;;6258387;22;20018;-83
2023/06/11 05:22:12;;;;;;;17.67;15.88;;;;;;;;;;6257518;22;20047;-84
2023/06/11 05:24:41;;;;;;;16.33;13.50;;;;;;;;;;6252804;22;20011;-81
2023/06/11 05:27:07;;;;;;;17.55;15.85;;;;;;;;;;6276880;22;20089;-81
2023/06/11 05:29:33;;;;;;;17.48;15.63;;;;;;;;;;6279273;22;20163;-83
2023/06/11 05:32:00;;;;;;;44.35;41.38;;;;;;;;;;6283848;22;20400;-84
2023/06/11 05:34:26;;;;;;;196.00;184.15;;;;;;;;;;6287955;22;20066;-84
2023/06/11 05:36:52;;;;;;;363.38;340.35;;;;;;;;;;6285894;22;20023;-85
2023/06/11 05:39:20;;;;;;;314.55;294.30;;;;;;;;;;6261448;22;20011;-84
2023/06/11 05:41:46;;;;;;;326.92;305.20;;;;;;;;;;6260678;22;20091;-83
2023/06/11 05:44:12;;;;;;;491.45;456.80;;;;;;;;;;6258052;22;20011;-83
2023/06/11 05:46:38;;;;;;;537.97;499.75;;;;;;;;;;6255940;22;20047;-84
2023/06/11 05:49:05;;;;;;;589.95;546.95;;;;;;;;;;6281069;22;20012;-82
2023/06/11 05:51:32;;;;;;;705.40;652.45;;;;;;;;;;6254147;22;20015;-81
2023/06/11 05:54:01;;;;;;;800.42;736.75;;;;;;;;;;6278203;22;20066;-81
2023/06/11 05:56:27;;;;;;;908.88;830.05;;;;;;;;;;6306949;22;20160;-84
2023/06/11 05:58:53;;;;;;;973.72;880.90;;;;;;;;;;6308058;22;20011;-85
2023/06/11 06:01:21;;;;;;;1066.88;952.22;;;;;;;;;;6279983;22;20014;-89
2023/06/11 06:03:47;;;;;;;1239.68;998.47;;;;;;;;;;6280821;22;20011;-88
2023/06/11 06:06:13;;;;;;;1694.80;999.90;;;;;;;;;;6281623;22;20017;-88
2023/06/11 06:08:40;;;;;;;1958.60;999.90;;;;;;;;;;6308175;22;20049;-87
2023/06/11 06:11:06;;;;;;;1999.90;999.90;;;;;;;;;;6281427;22;20011;-89
2023/06/11 06:13:32;;;;;;;1999.90;999.90;;;;;;;;;;6281645;22;20015;-93
2023/06/11 06:15:58;;;;;;;1999.90;999.90;;;;;;;;;;6308376;22;20011;-89
2023/06/11 06:18:24;;;;;;;1999.90;999.90;;;;;;;;;;6280406;22;20068;-89
2023/06/11 06:20:50;;;;;;;1999.90;999.90;;;;;;;;;;6279863;22;20019;-87
2023/06/11 06:23:16;;;;;;;1999.90;999.90;;;;;;;;;;6278479;22;20011;-85
2023/06/11 06:25:42;;;;;;;1999.90;999.90;;;;;;;;;;6279614;22;20015;-83
2023/06/11 06:28:08;;;;;;;1999.90;999.90;;;;;;;;;;6279560;22;20018;-89
2023/06/11 06:30:34;;;;;;;1999.90;999.90;;;;;;;;;;6253973;22;20021;-88
2023/06/11 06:33:00;;;;;;;1999.90;999.90;;;;;;;;;;6253774;22;20047;-87
2023/06/11 06:35:26;;;;;;;1999.90;999.90;;;;;;;;;;6253230;22;20342;-87
2023/06/11 06:37:52;;;;;;;1999.90;999.90;;;;;;;;;;6278787;22;20315;-87
2023/06/11 06:40:19;;;;;;;1999.90;999.90;;;;;;;;;;6279115;22;20008;-88
2023/06/11 06:42:45;;;;;;;1999.90;999.90;;;;;;;;;;6307767;22;20034;-87
2023/06/11 06:45:11;;;;;;;1999.90;999.90;;;;;;;;;;6279580;22;20012;-86
2023/06/11 06:47:37;;;;;;;1999.90;999.90;;;;;;;;;;6278422;22;20086;-84
2023/06/11 06:50:03;;;;;;;1999.90;999.90;;;;;;;;;;6303987;22;20041;-85
2023/06/11 06:52:29;;;;;;;1999.90;999.90;;;;;;;;;;6247679;22;20097;-84
2023/06/11 06:54:55;;;;;;;1999.90;999.90;;;;;;;;;;6303408;22;20019;-85
2023/06/11 06:57:23;;;;;;;1999.90;999.90;;;;;;;;;;6252187;22;20018;-89
2023/06/11 06:59:49;;;;;;;1999.90;999.90;;;;;;;;;;6252207;22;20023;-88
2023/06/11 07:02:15;;;;;;;1999.90;999.90;;;;;;;;;;6277315;22;20008;-88
2023/06/11 07:04:42;;;;;;;1999.90;999.90;;;;;;;;;;6251399;22;20019;-86
2023/06/11 07:07:08;;;;;;;1999.90;999.90;;;;;;;;;;6302983;22;20008;-86
2023/06/11 07:09:34;;;;;;;1999.90;999.90;;;;;;;;;;6276026;22;20035;-85
2023/06/11 07:12:00;;;;;;;1999.90;999.90;;;;;;;;;;6303008;22;20015;-87
2023/06/11 07:14:26;;;;;;;1999.90;999.90;;;;;;;;;;6276021;22;20086;-85
2023/06/11 07:16:52;;;;;;;1999.90;999.90;;;;;;;;;;6275975;22;20103;-85
2023/06/11 07:19:18;;;;;;;1999.90;999.90;;;;;;;;;;6275704;22;20510;-85
2023/06/11 07:21:44;;;;;;;1999.90;999.90;;;;;;;;;;6274734;22;20086;-86
2023/06/11 07:24:11;;;;;;;1999.90;999.90;;;;;;;;;;6250064;22;20399;-85
2023/06/11 07:26:37;;;;;;;1999.90;999.90;;;;;;;;;;6277299;22;20082;-89
2023/06/11 07:29:03;;;;;;;1999.90;999.90;;;;;;;;;;6252693;22;20019;-88
2023/06/11 07:31:29;;;;;;;1999.90;999.90;;;;;;;;;;6252248;22;20125;-89
2023/06/11 07:33:55;;;;;;;1999.90;999.90;;;;;;;;;;6254640;22;20015;-90
2023/06/11 07:36:21;;;;;;;1999.90;999.90;;;;;;;;;;6280485;22;20033;-90
2023/06/11 07:38:47;;;;;;;1999.90;999.90;;;;;;;;;;6255685;22;20114;-86
2023/06/11 07:41:13;;;;;;;1999.90;999.90;;;;;;;;;;6279814;22;20149;-91
2023/06/11 07:43:39;;;;;;;1999.90;999.90;;;;;;;;;;6281979;22;20414;-96
2023/06/11 07:46:05;;;;;;;1999.90;999.90;;;;;;;;;;6255591;22;20035;-95
2023/06/11 07:48:31;;;;;;;1999.90;999.90;;;;;;;;;;6282236;22;20086;-95
2023/06/11 07:50:58;;;;;;;1999.90;999.90;;;;;;;;;;6283323;22;20022;-94
2023/06/11 07:53:26;;;;;;;1999.90;999.90;;;;;;;;;;6309681;22;20011;-96
2023/06/11 07:55:56;;;;;;;1999.90;999.90;;;;;;;;;;6282095;22;20019;-94
2023/06/11 07:58:23;;;;;;;1999.90;999.90;;;;;;;;;;6283098;22;20016;-96
2023/06/11 08:00:49;;;;;;;1999.90;999.90;;;;;;;;;;6261280;22;20025;-96
2023/06/11 08:03:17;;;;;;;1999.90;999.90;;;;;;;;;;6298805;22;20018;-96
2023/06/11 10:00:49;;;;;;;1999.90;999.90;;;;;;;;;;6287083;22;20073;-85
2023/06/11 10:03:16;;;;;;;1999.90;999.90;;;;;;;;;;6231169;22;20072;-87
2023/06/11 10:05:42;;;;;;;1999.90;999.90;;;;;;;;;;6285811;22;20447;-90
2023/06/11 10:08:17;;;;;;;1999.90;999.90;;;;;;;;;;6264412;22;20020;-89
2023/06/11 10:10:45;;;;;;;1999.90;999.90;;;;;;;;;;6237034;22;20030;-85
2023/06/11 10:13:11;;;;;;;1999.90;999.90;;;;;;;;;;6277450;22;20027;-83
2023/06/11 10:15:38;;;;;;;1999.90;999.90;;;;;;;;;;6227387;22;20016;-85
2023/06/11 10:18:14;;;;;;;1999.90;999.90;;;;;;;;;;6252007;22;20019;-84
2023/06/11 10:20:51;;;;;;;1999.90;999.90;;;;;;;;;;6251467;22;20020;-85
2023/06/11 10:23:18;;;;;;;1999.90;999.90;;;;;;;;;;6247595;22;20316;-82
2023/06/11 10:25:51;;;;;;;1999.90;999.90;;;;;;;;;;6224392;22;20027;-83
2023/06/11 10:28:17;;;;;;;1999.90;999.90;;;;;;;;;;6279642;22;20350;-85
2023/06/11 10:30:53;;;;;;;1999.90;999.90;;;;;;;;;;6251241;22;20024;-83
2023/06/11 10:33:19;;;;;;;1999.90;999.90;;;;;;;;;;6276837;22;20011;-83
2023/06/11 10:35:46;;;;;;;1999.90;999.90;;;;;;;;;;6249667;22;20015;-82
2023/06/11 10:38:13;;;;;;;1999.90;999.90;;;;;;;;;;6254350;22;20094;-82
2023/06/11 10:40:40;;;;;;;1999.90;999.90;;;;;;;;;;6228149;22;20022;-85
2023/06/11 10:43:19;;;;;;;1999.90;999.90;;;;;;;;;;6253123;22;20087;-86
2023/06/11 10:45:45;;;;;;;1999.90;999.90;;;;;;;;;;6281210;22;20065;-84
2023/06/11 10:48:12;;;;;;;1999.90;999.90;;;;;;;;;;6250186;22;20047;-82
2023/06/11 10:50:38;;;;;;;1999.90;999.90;;;;;;;;;;6277159;22;20043;-83
2023/06/11 10:53:15;;;;;;;1999.90;999.90;;;;;;;;;;6253179;22;20049;-84
2023/06/11 10:55:44;;;;;;;1999.90;999.90;;;;;;;;;;6226217;22;20323;-84
2023/06/11 10:58:19;;;;;;;1999.90;999.90;;;;;;;;;;6229894;22;20039;-85
2023/06/11 11:00:45;;;;;;;1999.90;999.90;;;;;;;;;;6252195;22;20356;-82
2023/06/11 11:03:11;;;;;;;1999.90;999.90;;;;;;;;;;6224668;22;20307;-83
2023/06/11 11:05:41;;;;;;;1999.90;999.90;;;;;;;;;;6255644;22;20016;-87
2023/06/11 11:08:07;;;;;;;1999.90;999.90;;;;;;;;;;6275504;22;20015;-81
2023/06/11 11:10:33;;;;;;;1999.90;999.90;;;;;;;;;;6249770;22;20020;-83
2023/06/11 11:12:59;;;;;;;1999.90;999.90;;;;;;;;;;6250418;22;20012;-82
2023/06/11 11:15:25;;;;;;;1999.90;999.90;;;;;;;;;;6225074;22;20020;-87
2023/06/11 11:17:51;;;;;;;1999.90;999.90;;;;;;;;;;6251804;22;20077;-85
2023/06/11 11:20:19;;;;;;;1999.90;999.90;;;;;;;;;;6275892;22;20330;-83
2023/06/11 11:22:51;;;;;;;1999.90;999.90;;;;;;;;;;6224611;22;20034;-82
2023/06/11 11:25:18;;;;;;;1999.90;999.90;;;;;;;;;;6282332;22;20026;-87
2023/06/11 11:27:44;;;;;;;1999.90;999.90;;;;;;;;;;6260687;22;20023;-85
2023/06/11 11:30:11;;;;;;;1999.90;999.90;;;;;;;;;;6257317;22;20107;-85
2023/06/11 11:32:37;;;;;;;1999.90;999.90;;;;;;;;;;6256313;22;20016;-85
2023/06/11 11:35:04;;;;;;;1999.90;999.90;;;;;;;;;;6229199;22;20453;-81
2023/06/11 11:37:30;;;;;;;1999.90;999.90;;;;;;;;;;6248688;22;20418;-81
2023/06/11 11:39:57;;;;;;;1999.90;999.90;;;;;;;;;;6222990;22;20019;-82
2023/06/11 11:42:23;;;;;;;1999.90;999.90;;;;;;;;;;6247385;22;20043;-82
2023/06/11 11:44:51;;;;;;;1999.90;999.90;;;;;;;;;;6248554;22;20015;-83
2023/06/11 11:47:20;;;;;;;1999.90;999.90;;;;;;;;;;6248312;22;20019;-85
2023/06/11 11:49:56;;;;;;;1999.90;999.90;;;;;;;;;;6222711;22;20012;-86
2023/06/11 11:52:23;;;;;;;1999.90;999.90;;;;;;;;;;6275317;22;20431;-85
2023/06/11 11:54:49;;;;;;;1999.90;999.90;;;;;;;;;;6248187;22;20030;-85
2023/06/11 11:57:21;;;;;;;1999.90;999.90;;;;;;;;;;6247136;22;20023;-86
2023/06/11 11:59:51;;;;;;;1999.90;999.90;;;;;;;;;;6222633;22;20466;-83
2023/06/11 12:02:17;;;;;;;1999.90;999.90;;;;;;;;;;6248312;22;20014;-84
2023/06/11 12:04:47;;;;;;;1999.90;999.90;;;;;;;;;;6222756;22;20660;-84
2023/06/11 12:07:13;;;;;;;1999.90;999.90;;;;;;;;;;6275304;22;20019;-84
2023/06/11 12:09:40;;;;;;;1999.90;999.90;;;;;;;;;;6222537;22;20012;-85
2023/06/11 12:12:07;;;;;;;1999.90;999.90;;;;;;;;;;6222086;22;20007;-85
2023/06/11 12:14:33;;;;;;;1999.90;999.90;;;;;;;;;;6223153;22;20110;-87
2023/06/11 12:16:59;;;;;;;1999.90;999.90;;;;;;;;;;6274890;22;20051;-85
2023/06/11 12:19:28;;;;;;;1999.90;999.90;;;;;;;;;;6220857;22;20437;-85
2023/06/11 12:21:55;;;;;;;1999.90;999.90;;;;;;;;;;6245988;22;20019;-86
2023/06/11 12:24:22;;;;;;;1999.90;999.90;;;;;;;;;;6274449;22;20033;-90
2023/06/11 12:26:48;;;;;;;1999.90;999.90;;;;;;;;;;6274479;22;20081;-84
2023/06/11 12:29:15;;;;;;;1999.90;999.90;;;;;;;;;;6274419;22;20091;-90
2023/06/11 12:31:41;;;;;;;1999.90;999.90;;;;;;;;;;6275830;22;20011;-89
2023/06/11 12:34:09;;;;;;;1999.90;999.90;;;;;;;;;;6248814;22;20385;-91
2023/06/11 12:36:36;;;;;;;1999.90;999.90;;;;;;;;;;6223652;22;20331;-93
2023/06/11 12:39:04;;;;;;;1999.90;999.90;;;;;;;;;;6249136;22;20008;-88
2023/06/11 12:41:31;;;;;;;1999.90;999.90;;;;;;;;;;6247711;22;20019;-84
2023/06/11 12:43:57;;;;;;;1999.90;999.90;;;;;;;;;;6274090;22;20016;-85
2023/06/11 12:46:23;;;;;;;1999.90;999.90;;;;;;;;;;6247303;22;20439;-90
2023/06/11 12:48:49;;;;;;;1999.90;923.22;;;;;;;;;;6248335;22;20007;-89
2023/06/11 12:51:15;;;;;;;1999.90;989.65;;;;;;;;;;6249762;22;20096;-90
2023/06/11 12:53:41;;;;;;;1999.90;960.58;;;;;;;;;;6248233;22;20107;-91
2023/06/11 12:56:07;;;;;;;1999.90;999.90;;;;;;;;;;6223695;22;20092;-91
2023/06/11 12:58:33;;;;;;;1999.90;999.90;;;;;;;;;;6248079;22;20016;-91
2023/06/11 13:00:59;;;;;;;1562.43;672.33;;;;;;;;;;6249112;22;20016;-90
2023/06/11 13:03:25;;;;;;;1999.90;999.90;;;;;;;;;;6248672;22;20016;-93
2023/06/11 13:05:51;;;;;;;1999.90;999.90;;;;;;;;;;6222414;22;20015;-90
2023/06/11 13:08:17;;;;;;;1999.90;999.90;;;;;;;;;;6247190;22;20069;-88
2023/06/11 13:10:44;;;;;;;1999.90;999.90;;;;;;;;;;6247562;22;20026;-89
2023/06/11 13:13:10;;;;;;;1999.90;999.90;;;;;;;;;;6222216;22;20015;-89
2023/06/11 13:15:37;;;;;;;1999.90;999.90;;;;;;;;;;6220854;22;20015;-86
2023/06/11 13:18:03;;;;;;;1999.90;999.90;;;;;;;;;;6272667;22;20016;-86
2023/06/11 13:20:29;;;;;;;1999.90;999.90;;;;;;;;;;6273691;22;20532;-86
2023/06/11 13:22:55;;;;;;;1999.90;999.90;;;;;;;;;;6246322;22;20014;-86
2023/06/11 13:25:21;;;;;;;1999.90;999.90;;;;;;;;;;6272961;22;20008;-86
2023/06/11 13:27:47;;;;;;;1999.90;999.90;;;;;;;;;;6246284;22;20008;-85
2023/06/11 13:30:13;;;;;;;1999.90;999.90;;;;;;;;;;6246576;22;20022;-86
2023/06/11 13:32:40;;;;;;;1999.90;999.90;;;;;;;;;;6220629;22;20446;-85
2023/06/11 13:35:06;;;;;;;1999.90;999.90;;;;;;;;;;6220738;22;20089;-85
2023/06/11 13:37:34;;;;;;;1999.90;999.90;;;;;;;;;;6273652;22;20012;-89
2023/06/11 13:40:00;;;;;;;1999.90;999.90;;;;;;;;;;6247570;22;20035;-88
2023/06/11 13:42:26;;;;;;;1999.90;999.90;;;;;;;;;;6222864;22;20015;-89
2023/06/11 13:44:51;;;;;;;1999.90;999.90;;;;;;;;;;6223174;22;20016;-91
2023/06/11 13:47:17;;;;;;;1999.90;999.90;;;;;;;;;;6247604;22;20031;-87
2023/06/11 13:49:43;;;;;;;1999.90;999.90;;;;;;;;;;6274269;22;20016;-88
2023/06/11 13:52:09;;;;;;;1999.90;999.90;;;;;;;;;;6221451;22;20011;-86
2023/06/11 13:54:35;;;;;;;1999.90;999.90;;;;;;;;;;6226814;22;20450;-95
2023/06/11 13:57:01;;;;;;;1999.90;999.90;;;;;;;;;;6251954;22;20014;-93
2023/06/11 13:59:27;;;;;;;1999.90;999.90;;;;;;;;;;6225629;22;20035;-91
2023/06/11 14:01:54;;;;;;;1999.90;999.90;;;;;;;;;;6251661;22;20454;-95
2023/06/11 14:04:21;;;;;;;1999.90;999.90;;;;;;;;;;6252974;22;20008;-96
2023/06/11 14:06:47;;;;;;;1999.90;999.90;;;;;;;;;;6259296;22;20012;-92
2023/06/11 14:09:14;;;;;;;1999.90;999.90;;;;;;;;;;6254226;22;20030;-94
2023/06/11 14:11:40;;;;;;;1999.90;999.90;;;;;;;;;;6253694;22;20087;-93
2023/06/11 14:14:06;;;;;;;1999.90;999.90;;;;;;;;;;6247446;22;20012;-89
2023/06/11 14:16:32;;;;;;;1999.90;999.90;;;;;;;;;;6245626;22;20276;-91
2023/06/11 14:18:58;;;;;;;1999.90;999.90;;;;;;;;;;6245953;22;20023;-89
2023/06/11 14:21:24;;;;;;;1999.90;999.90;;;;;;;;;;6244445;22;20446;-87
2023/06/11 14:23:50;;;;;;;1999.90;999.90;;;;;;;;;;6220159;22;20011;-91
2023/06/11 14:26:16;;;;;;;1952.72;999.90;;;;;;;;;;6224329;22;20042;-88
2023/06/11 14:28:42;;;;;;;1999.90;999.90;;;;;;;;;;6247420;22;20369;-88
2023/06/11 14:31:08;;;;;;;1999.90;999.90;;;;;;;;;;6247224;22;20012;-89
2023/06/11 14:33:34;;;;;;;1999.90;999.90;;;;;;;;;;6247208;22;20780;-86
2023/06/11 14:36:04;;;;;;;1999.90;999.90;;;;;;;;;;6273070;22;20016;-90
2023/06/11 14:38:30;;;;;;;1999.90;999.90;;;;;;;;;;6246133;22;20087;-85
2023/06/11 14:40:56;;;;;;;1999.90;999.90;;;;;;;;;;6245644;22;20015;-88
2023/06/11 14:43:22;;;;;;;1999.90;999.90;;;;;;;;;;6245769;22;20069;-86
2023/06/11 14:45:49;;;;;;;1999.90;999.90;;;;;;;;;;6245685;22;20090;-87
2023/06/11 14:48:15;;;;;;;1999.90;999.90;;;;;;;;;;6245656;22;20384;-87
2023/06/11 14:50:40;;;;;;;1999.90;999.90;;;;;;;;;;6245538;22;20054;-88
2023/06/11 14:53:07;;;;;;;1999.90;999.90;;;;;;;;;;6221638;22;20166;-90
2023/06/11 14:55:34;;;;;;;1999.90;999.90;;;;;;;;;;6274003;22;20086;-89
2023/06/11 14:58:00;;;;;;;1999.90;999.90;;;;;;;;;;6273867;22;20441;-88
2023/06/11 15:00:26;;;;;;;1999.90;999.90;;;;;;;;;;6221221;22;20057;-87
2023/06/11 15:02:52;;;;;;;1999.90;999.90;;;;;;;;;;6246493;22;20068;-87
2023/06/11 15:05:18;;;;;;;1999.90;999.90;;;;;;;;;;6246552;22;20330;-87
2023/06/11 15:07:44;;;;;;;1999.90;999.90;;;;;;;;;;6274247;22;20105;-88
2023/06/11 15:10:10;;;;;;;1999.90;999.90;;;;;;;;;;6273288;22;20079;-88
2023/06/11 15:12:36;;;;;;;1999.90;999.90;;;;;;;;;;6220994;22;20015;-84
2023/06/11 15:15:02;;;;;;;1999.90;999.90;;;;;;;;;;6245860;22;20016;-85
2023/06/11 15:17:29;;;;;;;1999.90;999.90;;;;;;;;;;6245035;22;20043;-84
2023/06/11 15:19:58;;;;;;;1999.90;999.90;;;;;;;;;;6244663;22;20015;-84
2023/06/11 15:22:26;;;;;;;1999.90;999.90;;;;;;;;;;6245446;22;20323;-81
2023/06/11 15:24:52;;;;;;;1999.90;999.90;;;;;;;;;;6272768;22;20087;-82
2023/06/11 15:27:18;;;;;;;1999.90;999.90;;;;;;;;;;6245053;22;20108;-88
2023/06/11 15:29:44;;;;;;;1999.90;999.90;;;;;;;;;;6221592;22;20015;-86
2023/06/11 15:32:10;;;;;;;1999.90;999.90;;;;;;;;;;6246926;22;20016;-88
2023/06/11 15:34:36;;;;;;;1999.90;999.90;;;;;;;;;;6246947;22;20015;-87
2023/06/11 15:37:02;;;;;;;1999.90;999.90;;;;;;;;;;6274167;22;20069;-90
2023/06/11 15:39:28;;;;;;;1999.90;999.90;;;;;;;;;;6220541;22;20099;-89
2023/06/11 15:41:54;;;;;;;1999.90;999.90;;;;;;;;;;6221618;22;20035;-90
2023/06/11 15:44:20;;;;;;;1999.90;999.90;;;;;;;;;;6247588;22;20012;-91
2023/06/11 15:46:46;;;;;;;1999.90;999.90;;;;;;;;;;6247206;22;20012;-89